Time;durP1;ratioP1;P1;durP2;ratioP2;P2;SDS_P1;SDS_P2;PMS_P1;PMS_P2;Temp;Humidity;BMP_temperature;BMP_pressure;BME280_temperature;BME280_humidity;BME280_pressure;Samples;Min_cycle;Max_cycle;Signal;HPM_P1;HPM_P2
2022/02/15 00:00:31;;;;;;;10.88;3.95;;;;;;;6.32;100.00;67480.25;5070483;28;20489;-89
2022/02/15 00:02:56;;;;;;;10.05;4.65;;;;;;;;;;5055901;28;20037;-88
2022/02/15 00:05:22;;;;;;;9.68;4.47;;;;;;;6.36;100.00;67481.56;5049915;28;20047;-89
2022/02/15 00:07:50;;;;;;;6.50;4.22;;;;;;;6.32;100.00;67482.31;5020244;28;20101;-89
2022/02/15 00:10:15;;;;;;;12.95;4.38;;;;;;;;;;5043611;28;20071;-89
2022/02/15 00:12:41;;;;;;;8.80;3.67;;;;;;;6.29;100.00;67473.66;5052580;28;20096;-88
2022/02/15 00:15:08;;;;;;;11.05;4.45;;;;;;;6.30;100.00;67475.34;5030564;28;20037;-89
2022/02/15 00:17:34;;;;;;;11.90;4.85;;;;;;;;;;5037493;28;20110;-88
2022/02/15 00:19:59;;;;;;;9.80;4.22;;;;;;;6.33;100.00;67478.19;5068624;28;20037;-88
2022/02/15 00:22:25;;;;;;;9.25;3.90;;;;;;;6.30;100.00;67478.00;5041324;28;20132;-94
2022/02/15 00:24:50;;;;;;;10.70;4.50;;;;;;;6.31;100.00;67475.91;5041627;28;20046;-89
2022/02/15 00:27:16;;;;;;;13.48;5.47;;;;;;;6.29;100.00;67476.28;5053938;28;20041;-92
2022/02/15 00:29:41;;;;;;;10.85;4.53;;;;;;;6.28;100.00;67478.38;5048662;28;20148;-90
2022/02/15 00:32:07;;;;;;;8.43;4.55;;;;;;;6.30;100.00;67480.06;5030143;28;20048;-89
2022/02/15 00:34:34;;;;;;;7.85;4.90;;;;;;;6.28;100.00;67473.09;5024233;28;20108;-90
2022/02/15 00:37:00;;;;;;;9.77;5.25;;;;;;;6.28;100.00;67477.81;5022124;28;20173;-93
2022/02/15 00:39:26;;;;;;;10.73;4.82;;;;;;;6.27;100.00;67466.09;5021436;28;20072;-91
2022/02/15 00:41:51;;;;;;;10.52;5.20;;;;;;;6.26;100.00;67470.25;5025178;28;20088;-92
2022/02/15 00:44:17;;;;;;;10.10;5.45;;;;;;;6.24;100.00;67468.00;5013820;28;20042;-91
2022/02/15 00:46:42;;;;;;;10.75;5.53;;;;;;;;;;5020982;28;20046;-90
2022/02/15 00:49:08;;;;;;;10.23;4.57;;;;;;;6.23;100.00;67469.50;5023468;28;20045;-91
2022/02/15 00:51:33;;;;;;;14.00;6.05;;;;;;;;;;5028774;28;20176;-90
2022/02/15 00:53:58;;;;;;;11.25;5.80;;;;;;;6.24;100.00;67471.22;5021115;28;20037;-92
2022/02/15 00:56:24;;;;;;;11.15;5.55;;;;;;;;;;5028309;28;20045;-90
2022/02/15 00:58:50;;;;;;;9.77;5.55;;;;;;;;;;5053714;28;20037;-93
2022/02/15 01:01:16;;;;;;;12.07;6.40;;;;;;;;;;5028161;28;20048;-89
2022/02/15 01:03:41;;;;;;;11.18;6.10;;;;;;;;;;5032521;28;20060;-91
2022/02/15 01:06:08;;;;;;;10.40;5.85;;;;;;;6.16;100.00;67458.94;5040846;28;20053;-90
2022/02/15 01:08:35;;;;;;;11.77;6.22;;;;;;;6.13;100.00;67456.13;5025508;28;20547;-91
2022/02/15 01:11:00;;;;;;;14.40;5.95;;;;;;;6.12;100.00;67455.00;5027454;28;20513;-89
2022/02/15 01:13:30;;;;;;;13.00;6.45;;;;;;;6.10;100.00;67453.31;5032675;28;20065;-89
2022/02/15 01:15:58;;;;;;;13.40;6.50;;;;;;;6.09;100.00;67452.16;5038386;28;20498;-91
2022/02/15 01:18:26;;;;;;;10.95;6.30;;;;;;;6.08;100.00;67451.03;5022179;28;20050;-93
2022/02/15 01:20:53;;;;;;;11.05;5.50;;;;;;;6.05;100.00;67450.28;5020654;28;20433;-89
2022/02/15 01:23:18;;;;;;;12.98;7.55;;;;;;;;;;5030109;28;20378;-92
2022/02/15 01:25:44;;;;;;;12.45;7.57;;;;;;;6.07;100.00;67449.91;5044030;28;20060;-91
2022/02/15 01:28:13;;;;;;;15.00;6.93;;;;;;;6.05;100.00;67449.72;5025453;28;20120;-92
2022/02/15 01:30:38;;;;;;;9.02;6.03;;;;;;;;;;5023556;28;20057;-91
2022/02/15 01:33:11;;;;;;;12.10;7.43;;;;;;;6.04;100.00;67446.53;5021007;28;20053;-90
2022/02/15 01:35:42;;;;;;;10.32;6.75;;;;;;;6.01;100.00;67447.84;5033006;28;20390;-89
2022/02/15 01:38:08;;;;;;;16.05;6.45;;;;;;;;;;5017298;28;20045;-88
2022/02/15 01:40:33;;;;;;;17.08;7.25;;;;;;;;;;5036431;28;20049;-88
2022/02/15 01:43:01;;;;;;;9.18;6.43;;;;;;;5.95;100.00;67436.34;5034481;28;20048;-88
2022/02/15 01:45:28;;;;;;;13.75;7.32;;;;;;;5.96;100.00;67436.91;5023410;28;20538;-88
2022/02/15 01:47:53;;;;;;;11.43;6.05;;;;;;;;;;5030496;28;20064;-93
2022/02/15 01:50:20;;;;;;;10.95;6.82;;;;;;;5.90;100.00;67430.69;5024223;28;20042;-91
2022/02/15 01:52:46;;;;;;;13.05;6.57;;;;;;;5.92;100.00;67432.38;5010847;28;20061;-89
2022/02/15 01:55:15;;;;;;;12.07;7.35;;;;;;;;;;5020218;28;20572;-94
2022/02/15 01:57:40;;;;;;;9.27;6.03;;;;;;;5.89;100.00;67429.53;5026735;28;20049;-87
2022/02/15 02:00:22;;;;;;;8.70;6.43;;;;;;;5.86;100.00;67428.78;5024923;28;20067;-90
2022/02/15 02:02:51;;;;;;;12.52;6.60;;;;;;;;;;5025131;28;20069;-90
2022/02/15 02:08:05;;;;;;;9.48;5.50;;;;;;;5.81;100.00;67415.78;5018884;28;20084;-91
2022/02/15 02:10:39;;;;;;;9.77;5.43;;;;;;;5.80;100.00;67419.38;4996378;28;20042;-92
2022/02/15 02:13:06;;;;;;;7.55;6.47;;;;;;;;;;4997711;28;20033;-91
2022/02/15 02:15:33;;;;;;;10.02;5.18;;;;;;;5.78;100.00;67411.81;5010391;28;20096;-92
2022/02/15 02:18:02;;;;;;;8.85;5.75;;;;;;;5.81;100.00;67420.50;5016016;28;20142;-90
2022/02/15 02:20:28;;;;;;;9.23;5.65;;;;;;;5.79;100.00;67421.44;5014427;28;20048;-87
2022/02/15 02:22:54;;;;;;;10.93;6.78;;;;;;;5.78;100.00;67419.75;5021939;28;20069;-87
2022/02/15 02:25:20;;;;;;;8.27;5.85;;;;;;;;;;4997767;28;20060;-90
2022/02/15 02:27:46;;;;;;;9.88;6.18;;;;;;;5.74;100.00;67412.59;5002688;28;20080;-91
2022/02/15 02:30:15;;;;;;;11.95;6.85;;;;;;;5.76;100.00;67414.84;5015838;28;20099;-92
2022/02/15 02:32:42;;;;;;;9.57;7.03;;;;;;;5.76;100.00;67417.50;5003353;28;20050;-89
2022/02/15 02:35:10;;;;;;;9.35;5.18;;;;;;;5.72;100.00;67410.31;5029959;28;20049;-91
2022/02/15 02:37:37;;;;;;;10.93;6.18;;;;;;;5.73;100.00;67416.75;5030622;28;20120;-88
2022/02/15 02:40:06;;;;;;;10.50;7.00;;;;;;;5.71;100.00;67412.41;5030110;28;20064;-91
2022/02/15 02:42:34;;;;;;;8.90;5.20;;;;;;;5.68;100.00;67405.81;5022918;28;20052;-90
2022/02/15 02:45:03;;;;;;;10.50;6.80;;;;;;;5.72;100.00;67410.31;5029802;28;20487;-91
2022/02/15 02:47:28;;;;;;;;;;;;;;;5.70;100.00;67408.63;5029556;28;20479;-92
2022/02/15 02:49:54;;;;;;;9.30;6.22;;;;;;;;;;5044451;28;19912;-90
2022/02/15 02:52:21;;;;;;;8.38;5.85;;;;;;;5.61;100.00;67399.03;5039945;28;21131;-88
2022/02/15 02:54:47;;;;;;;10.63;6.05;;;;;;;;;;5050085;28;20041;-91
2022/02/15 02:57:15;;;;;;;9.85;6.90;;;;;;;;;;5037910;28;20590;-89
2022/02/15 02:59:41;;;;;;;9.32;6.60;;;;;;;;;;5024579;28;20102;-89
2022/02/15 03:02:07;;;;;;;8.15;6.03;;;;;;;5.63;100.00;67400.72;5039608;28;20040;-89
2022/02/15 03:04:34;;;;;;;10.10;7.30;;;;;;;5.66;100.00;67404.66;5020699;28;20053;-91
2022/02/15 03:06:59;;;;;;;11.07;6.70;;;;;;;5.66;100.00;67404.66;5047453;28;20033;-89
2022/02/15 03:09:25;;;;;;;9.18;6.18;;;;;;;5.62;100.00;67400.16;5015571;28;20091;-87
2022/02/15 03:11:51;;;;;;;8.70;5.85;;;;;;;5.63;100.00;67403.91;5046844;28;20045;-88
2022/02/15 03:14:17;;;;;;;8.95;6.63;;;;;;;5.65;100.00;67403.53;5035519;28;20044;-88
2022/02/15 03:16:43;;;;;;;9.20;6.13;;;;;;;5.64;100.00;67401.84;5045955;28;20041;-87
2022/02/15 03:19:09;;;;;;;8.50;5.95;;;;;;;5.64;100.00;67402.41;5049775;28;20527;-87
2022/02/15 03:21:37;;;;;;;11.07;5.70;;;;;;;5.62;100.00;67402.22;5053096;28;20045;-87
2022/02/15 03:24:06;;;;;;;8.55;5.90;;;;;;;5.64;100.00;67401.84;5050775;28;20037;-87
2022/02/15 03:26:32;;;;;;;12.10;6.47;;;;;;;5.66;100.00;67399.38;5037043;28;20390;-87
2022/02/15 03:28:58;;;;;;;10.25;6.70;;;;;;;5.65;100.00;67403.53;5043720;28;20063;-88
2022/02/15 03:31:24;;;;;;;10.77;6.50;;;;;;;5.65;100.00;67408.81;5032158;28;20049;-87
2022/02/15 03:33:50;;;;;;;10.02;6.85;;;;;;;5.66;100.00;67404.66;5057519;28;20048;-88
2022/02/15 03:36:17;;;;;;;15.32;6.43;;;;;;;5.65;100.00;67408.25;5045906;28;20041;-87
2022/02/15 03:38:43;;;;;;;12.23;7.03;;;;;;;5.68;100.00;67408.44;5044934;28;20083;-87
2022/02/15 03:43:54;;;;;;;13.38;7.90;;;;;;;5.62;100.00;67402.78;5053672;28;20420;-89
2022/02/15 03:46:21;;;;;;;13.07;7.78;;;;;;;5.63;100.00;67403.91;5050807;28;20048;-90
2022/02/15 03:48:46;;;;;;;12.68;8.13;;;;;;;5.61;100.00;67399.03;5039156;28;20132;-92
2022/02/15 03:51:12;;;;;;;13.25;9.20;;;;;;;5.61;100.00;67399.03;5041785;28;20124;-88
2022/02/15 03:53:37;;;;;;;20.40;9.88;;;;;;;5.60;100.00;67400.53;5038492;28;20041;-91
2022/02/15 03:56:05;;;;;;;17.17;9.77;;;;;;;5.60;100.00;67397.31;5029006;28;20109;-89
2022/02/15 03:58:31;;;;;;;15.18;10.43;;;;;;;5.55;100.00;67392.25;5043598;28;20047;-89
2022/02/15 04:00:56;;;;;;;16.48;10.55;;;;;;;5.56;100.00;67392.81;5042867;28;20052;-90
2022/02/15 04:03:22;;;;;;;14.45;9.73;;;;;;;5.54;100.00;67391.13;5041836;28;20037;-90
2022/02/15 04:05:47;;;;;;;14.13;9.48;;;;;;;5.52;100.00;67394.13;5057121;28;20045;-89
2022/02/15 04:08:13;;;;;;;13.90;9.68;;;;;;;5.51;100.00;67393.00;5051929;28;20033;-91
2022/02/15 04:10:38;;;;;;;19.15;10.27;;;;;;;5.51;100.00;67387.72;5049498;28;20048;-92
2022/02/15 04:13:04;;;;;;;17.65;10.18;;;;;;;5.48;100.00;67384.34;5006953;28;20062;-91
2022/02/15 04:15:29;;;;;;;14.10;8.93;;;;;;;5.45;100.00;67375.66;5009078;28;20502;-91
2022/02/15 04:17:55;;;;;;;15.35;10.52;;;;;;;5.47;100.00;67383.22;5010390;28;20081;-90
2022/02/15 04:20:21;;;;;;;15.63;9.57;;;;;;;5.43;100.00;67379.25;5002778;28;20049;-89
2022/02/15 04:22:49;;;;;;;16.27;11.23;;;;;;;5.44;100.00;67379.81;5001129;28;20128;-91
2022/02/15 04:25:16;;;;;;;16.73;10.95;;;;;;;5.44;100.00;67379.81;4986319;28;20188;-90
2022/02/15 04:27:41;;;;;;;16.73;11.35;;;;;;;5.43;100.00;67381.31;4986048;28;20491;-90
2022/02/15 04:30:08;;;;;;;17.20;10.13;;;;;;;5.42;100.00;67372.28;5000441;28;20076;-90
2022/02/15 04:32:33;;;;;;;20.40;11.57;;;;;;;;;;5004710;28;20088;-88
2022/02/15 04:34:59;;;;;;;19.77;11.50;;;;;;;5.40;100.00;67375.28;4999889;28;20045;-89
2022/02/15 04:37:24;;;;;;;18.15;12.90;;;;;;;5.39;100.00;67377.38;4976498;28;20511;-89
2022/02/15 04:39:52;;;;;;;17.42;11.48;;;;;;;5.37;100.00;67375.09;5019942;28;20562;-90
2022/02/15 04:42:18;;;;;;;17.63;12.50;;;;;;;5.37;100.00;67371.91;5037240;28;20034;-88
2022/02/15 04:44:44;;;;;;;17.48;10.95;;;;;;;5.36;100.00;67370.78;5029138;28;20038;-87
2022/02/15 04:47:12;;;;;;;20.20;11.50;;;;;;;5.33;100.00;67367.41;5003643;28;20045;-88
2022/02/15 04:49:38;;;;;;;18.48;12.27;;;;;;;5.32;100.00;67366.25;5036384;28;20053;-89
2022/02/15 04:52:05;;;;;;;17.20;11.25;;;;;;;5.32;100.00;67366.25;5018508;28;20071;-88
2022/02/15 04:54:30;;;;;;;19.08;11.30;;;;;;;;;;5009032;28;20072;-90
2022/02/15 04:56:55;;;;;;;18.52;11.60;;;;;;;5.32;100.00;67368.88;5017968;28;20041;-89
2022/02/15 04:59:21;;;;;;;17.50;11.95;;;;;;;5.30;100.00;67364.56;5004521;28;20442;-89
2022/02/15 05:01:47;;;;;;;19.08;11.82;;;;;;;5.30;100.00;67367.22;5015698;28;20113;-90
2022/02/15 05:06:58;;;;;;;19.02;11.80;;;;;;;5.26;100.00;67359.47;4979320;28;20111;-92
2022/02/15 05:09:25;;;;;;;17.20;10.18;;;;;;;5.27;100.00;67360.63;4966782;28;20037;-93
2022/02/15 05:11:50;;;;;;;16.05;10.57;;;;;;;5.25;100.00;67358.34;4971190;28;20526;-90
2022/02/15 05:14:15;;;;;;;16.38;10.93;;;;;;;5.26;100.00;67359.47;4983989;28;20050;-90
2022/02/15 05:16:41;;;;;;;16.92;10.10;;;;;;;5.24;100.00;67362.50;4992215;28;20212;-88
2022/02/15 05:19:06;;;;;;;16.80;11.25;;;;;;;5.26;100.00;67362.13;4986049;28;20037;-88
2022/02/15 05:21:32;;;;;;;17.58;10.82;;;;;;;5.26;100.00;67359.47;4988952;28;20038;-87
2022/02/15 05:23:58;;;;;;;17.92;11.80;;;;;;;5.26;100.00;67359.47;4982547;28;20085;-88
2022/02/15 05:26:23;;;;;;;19.00;10.70;;;;;;;5.22;100.00;67354.97;4983944;28;20106;-92
2022/02/15 05:28:48;;;;;;;19.80;10.90;;;;;;;;;;4983894;28;20046;-89
2022/02/15 05:31:14;;;;;;;16.65;10.07;;;;;;;5.20;100.00;67353.81;4992757;28;20120;-89
2022/02/15 05:33:40;;;;;;;18.55;12.18;;;;;;;5.19;100.00;67352.69;4986152;28;20125;-92
2022/02/15 05:36:05;;;;;;;15.55;10.40;;;;;;;;;;5008259;28;20038;-88
2022/02/15 05:38:31;;;;;;;21.35;12.52;;;;;;;5.18;100.00;67351.00;5027540;28;20097;-91
2022/02/15 05:40:56;;;;;;;19.40;12.00;;;;;;;5.19;100.00;67354.78;5037176;28;20052;-91
2022/02/15 05:43:22;;;;;;;18.75;11.25;;;;;;;5.19;100.00;67352.69;5056327;28;20303;-89
2022/02/15 05:45:47;;;;;;;18.50;11.30;;;;;;;5.20;100.00;67353.25;5025825;28;20042;-90
2022/02/15 05:48:13;;;;;;;20.58;11.82;;;;;;;5.18;100.00;67351.56;4992999;28;20097;-89
2022/02/15 05:50:51;;;;;;;19.92;11.32;;;;;;;;;;4977166;28;20058;-91
2022/02/15 05:53:17;;;;;;;17.73;10.65;;;;;;;5.19;100.00;67352.69;4941380;28;20569;-91
2022/02/15 05:55:43;;;;;;;18.70;11.00;;;;;;;5.19;100.00;67352.69;4964380;28;20165;-89
2022/02/15 05:58:09;;;;;;;20.08;11.43;;;;;;;5.20;100.00;67353.81;4939329;28;20086;-89
2022/02/15 06:00:38;;;;;;;25.20;12.68;;;;;;;5.22;100.00;67355.53;4934081;28;20130;-91
2022/02/15 06:04:09;;;;;;;19.40;12.40;;;;;;;5.25;100.00;67358.91;4923821;29;20040;-89
2022/02/15 06:05:49;;;;;;;22.10;13.65;;;;;;;;;;4970041;28;20302;-90
2022/02/15 06:08:14;;;;;;;18.13;10.93;;;;;;;;;;4947189;28;20535;-90
2022/02/15 06:10:40;;;;;;;20.42;11.85;;;;;;;5.23;100.00;67356.66;4960005;28;20042;-89
2022/02/15 06:13:05;;;;;;;24.02;13.63;;;;;;;5.24;100.00;67357.78;4965835;28;20034;-88
2022/02/15 06:15:31;;;;;;;22.70;11.68;;;;;;;5.22;100.00;67355.53;4963008;28;20054;-89
2022/02/15 06:18:00;;;;;;;23.75;13.73;;;;;;;5.23;100.00;67358.72;4994637;28;20042;-90
2022/02/15 06:20:28;;;;;;;24.38;14.60;;;;;;;5.25;100.00;67364.19;5039116;28;20103;-91
2022/02/15 06:22:56;;;;;;;23.23;14.15;;;;;;;5.25;100.00;67358.34;5038025;28;20054;-89
2022/02/15 06:25:22;;;;;;;27.47;14.37;;;;;;;5.24;100.00;67357.78;5039739;28;20056;-88
2022/02/15 06:27:48;;;;;;;24.10;13.57;;;;;;;5.24;100.00;67357.22;5035229;28;20049;-89
2022/02/15 06:30:14;;;;;;;27.00;16.45;;;;;;;5.26;100.00;67359.47;5027464;28;20050;-89
2022/02/15 06:32:40;;;;;;;24.77;14.20;;;;;;;5.24;100.00;67360.44;5038024;28;20067;-91
2022/02/15 06:35:08;;;;;;;25.50;14.93;;;;;;;5.24;100.00;67360.44;5027652;28;20048;-91
2022/02/15 06:37:44;;;;;;;26.85;14.98;;;;;;;5.22;100.00;67355.53;5000828;28;20065;-92
2022/02/15 06:40:12;;;;;;;31.52;18.02;;;;;;;5.25;100.00;67358.91;5018427;28;20049;-92
2022/02/15 06:42:48;;;;;;;26.33;16.48;;;;;;;;;;5015786;28;20521;-93
2022/02/15 06:45:31;;;;;;;28.90;14.75;;;;;;;;;;5021757;28;20383;-93
2022/02/15 06:47:58;;;;;;;30.45;16.48;;;;;;;5.26;100.00;67362.13;5046379;28;20068;-89
2022/02/15 06:50:27;;;;;;;29.95;15.75;;;;;;;5.24;100.00;67357.78;5021407;28;20034;-89
2022/02/15 06:52:54;;;;;;;31.48;17.25;;;;;;;5.28;100.00;67362.31;5041318;28;20064;-90
2022/02/15 06:55:19;;;;;;;32.60;18.70;;;;;;;5.28;100.00;67362.31;5034726;28;20111;-89
2022/02/15 06:57:45;;;;;;;31.23;20.25;;;;;;;5.28;100.00;67362.31;5033599;28;20050;-92
2022/02/15 07:00:13;;;;;;;30.70;18.05;;;;;;;5.29;100.00;67365.50;5048286;28;20053;-88
2022/02/15 07:02:39;;;;;;;32.67;19.70;;;;;;;5.28;100.00;67362.31;5021895;28;20084;-87
2022/02/15 07:05:05;;;;;;;35.10;18.75;;;;;;;5.30;100.00;67364.00;5018687;28;20061;-88
2022/02/15 07:07:33;;;;;;;32.53;19.63;;;;;;;5.31;100.00;67365.69;5016920;28;20118;-89
2022/02/15 07:09:59;;;;;;;38.25;21.50;;;;;;;;;;5015773;28;20113;-91
2022/02/15 07:12:26;;;;;;;35.92;22.00;;;;;;;5.33;100.00;67370.59;5015017;28;20081;-90
2022/02/15 07:14:51;;;;;;;30.30;18.42;;;;;;;;;;5001574;28;20049;-88
2022/02/15 07:17:17;;;;;;;37.20;24.17;;;;;;;;;;5000835;28;20050;-89
2022/02/15 07:19:44;;;;;;;38.60;21.80;;;;;;;5.33;100.00;67367.94;5018084;28;20380;-89
2022/02/15 07:22:09;;;;;;;36.33;24.05;;;;;;;;;;5003236;28;20030;-88
2022/02/15 07:24:36;;;;;;;39.40;24.48;;;;;;;5.35;100.00;67372.84;5011004;28;20099;-92
2022/02/15 07:27:01;;;;;;;33.53;20.48;;;;;;;5.34;100.00;67369.06;5009250;28;20041;-89
2022/02/15 07:29:27;;;;;;;40.25;21.55;;;;;;;5.36;100.00;67365.50;4990523;28;20084;-88
2022/02/15 07:31:52;;;;;;;40.90;23.48;;;;;;;5.36;100.00;67370.78;5028798;28;20140;-90
2022/02/15 07:34:18;;;;;;;35.35;22.83;;;;;;;5.38;100.00;67375.66;5020852;28;20094;-90
2022/02/15 07:36:44;;;;;;;36.97;22.70;;;;;;;;;;5010876;28;20101;-90
2022/02/15 07:39:10;;;;;;;42.60;27.20;;;;;;;;;;4990109;28;20038;-89
2022/02/15 07:41:35;;;;;;;39.83;25.60;;;;;;;5.41;100.00;67377.00;5008226;28;20121;-89
2022/02/15 07:44:01;;;;;;;39.10;25.83;;;;;;;;;;4997130;28;20061;-91
2022/02/15 07:46:28;;;;;;;42.33;27.48;;;;;;;5.44;100.00;67379.81;5005775;28;20050;-90
2022/02/15 07:48:53;;;;;;;42.45;25.25;;;;;;;5.45;100.00;67380.38;4989141;28;20109;-89
2022/02/15 07:51:19;;;;;;;47.10;26.55;;;;;;;5.47;100.00;67387.91;5002770;28;20037;-91
2022/02/15 07:53:44;;;;;;;48.88;25.15;;;;;;;5.47;100.00;67382.63;5052054;28;20091;-91
2022/02/15 07:56:30;;;;;;;39.95;25.70;;;;;;;5.47;100.00;67387.91;5053199;28;20037;-87
2022/02/15 07:58:56;;;;;;;46.72;24.35;;;;;;;5.48;100.00;67389.06;5044034;28;20517;-88
2022/02/15 08:01:21;;;;;;;49.33;27.58;;;;;;;5.51;100.00;67387.16;5064942;28;20295;-89
2022/02/15 08:03:47;;;;;;;47.47;30.80;;;;;;;5.54;100.00;67391.13;5054076;28;20045;-90
2022/02/15 08:06:12;;;;;;;45.47;29.55;;;;;;;;;;5061174;28;20555;-88
2022/02/15 08:08:38;;;;;;;46.15;27.98;;;;;;;5.54;100.00;67390.56;5043623;28;20064;-91
2022/02/15 08:11:03;;;;;;;42.25;25.65;;;;;;;5.55;100.00;67386.41;5040488;28;20158;-88
2022/02/15 08:13:34;;;;;;;51.40;30.92;;;;;;;5.56;100.00;67398.66;5037409;28;20042;-90
2022/02/15 08:16:01;;;;;;;49.58;24.17;;;;;;;5.58;100.00;67395.66;5046612;28;20135;-89
2022/02/15 08:18:27;;;;;;;47.15;30.33;;;;;;;;;;5032953;28;20069;-89
2022/02/15 08:20:53;;;;;;;40.72;25.63;;;;;;;5.63;100.00;67396.00;5046925;28;20045;-91
2022/02/15 08:23:22;;;;;;;41.42;23.23;;;;;;;5.63;100.00;67395.44;5040268;28;20044;-88
2022/02/15 08:25:50;;;;;;;48.08;30.48;;;;;;;5.66;100.00;67404.09;5054101;28;20045;-88
2022/02/15 08:28:16;;;;;;;46.17;26.52;;;;;;;;;;5060395;28;20069;-89
2022/02/15 08:30:42;;;;;;;40.60;24.40;;;;;;;5.68;100.00;67408.44;5061046;28;20037;-89
2022/02/15 08:33:08;;;;;;;45.78;31.10;;;;;;;5.71;100.00;67411.84;5057598;28;20052;-90
2022/02/15 08:35:34;;;;;;;41.85;27.08;;;;;;;5.72;100.00;67410.31;5047311;28;20414;-89
2022/02/15 08:38:02;;;;;;;40.90;23.40;;;;;;;5.71;100.00;67409.19;5042745;28;20045;-88
2022/02/15 08:40:27;;;;;;;40.15;24.40;;;;;;;5.71;100.00;67409.19;5084768;28;20041;-89
2022/02/15 08:42:53;;;;;;;44.38;29.05;;;;;;;5.72;100.00;67410.31;5060513;28;20048;-91
2022/02/15 08:45:19;;;;;;;43.28;24.05;;;;;;;5.72;100.00;67410.88;5045905;28;20520;-88
2022/02/15 08:47:45;;;;;;;39.65;23.38;;;;;;;5.73;100.00;67414.66;5042818;28;20096;-88
2022/02/15 08:50:10;;;;;;;41.65;26.73;;;;;;;5.78;100.00;67417.09;5046940;28;20047;-89
2022/02/15 08:52:36;;;;;;;39.78;21.88;;;;;;;5.76;100.00;67417.50;5060510;28;20086;-88
2022/02/15 08:55:03;;;;;;;43.20;26.20;;;;;;;5.80;100.00;67419.94;5049792;28;20041;-92
2022/02/15 08:57:29;;;;;;;41.85;27.75;;;;;;;;;;5049743;28;20044;-89
2022/02/15 08:59:54;;;;;;;40.10;24.95;;;;;;;5.85;100.00;67419.75;5041448;28;20048;-88
2022/02/15 09:02:21;;;;;;;40.25;24.58;;;;;;;5.84;100.00;67424.47;5047675;28;20040;-88
2022/02/15 09:04:46;;;;;;;39.83;24.15;;;;;;;5.90;100.00;67430.69;5048167;28;20049;-89
2022/02/15 09:07:12;;;;;;;35.92;21.52;;;;;;;5.90;100.00;67430.69;5057304;28;20033;-90
2022/02/15 09:09:38;;;;;;;40.63;23.48;;;;;;;;;;5044249;28;20064;-90
2022/02/15 09:12:05;;;;;;;39.13;25.10;;;;;;;5.92;100.00;67432.38;5043263;28;20048;-89
2022/02/15 09:14:31;;;;;;;40.42;22.25;;;;;;;5.98;100.00;67433.88;5038592;28;20097;-88
2022/02/15 09:16:59;;;;;;;43.28;25.35;;;;;;;6.02;100.00;67444.25;5043322;28;20071;-89
2022/02/15 09:19:25;;;;;;;42.05;24.80;;;;;;;6.09;100.00;67452.16;5064920;28;20142;-88
2022/02/15 09:21:51;;;;;;;39.88;24.70;;;;;;;6.06;100.00;67443.50;5060685;28;20037;-88
2022/02/15 09:24:17;;;;;;;41.50;25.88;;;;;;;6.11;100.00;67453.88;5040747;28;20087;-88
2022/02/15 09:26:43;;;;;;;40.92;22.83;;;;;;;6.11;100.00;67453.88;5038877;28;20041;-88
2022/02/15 09:29:10;;;;;;;39.70;22.15;;;;;;;6.14;100.00;67451.41;5039629;28;20056;-88
2022/02/15 09:31:39;;;;;;;39.13;20.13;;;;;;;6.14;100.00;67459.34;5028728;28;20506;-90
2022/02/15 09:34:05;;;;;;;38.60;24.73;;;;;;;6.16;100.00;67461.59;5021034;28;20140;-89
2022/02/15 09:36:31;;;;;;;41.08;25.65;;;;;;;6.15;100.00;67458.38;5012868;28;20037;-89
2022/02/15 09:38:56;;;;;;;38.58;22.88;;;;;;;;;;5014976;28;20080;-88
2022/02/15 09:41:22;;;;;;;31.88;19.75;;;;;;;6.18;100.00;67461.22;5016959;28;20042;-89
2022/02/15 09:43:51;;;;;;;34.63;18.13;;;;;;;;;;5022894;28;20050;-88
2022/02/15 09:46:18;;;;;;;35.67;22.77;;;;;;;6.23;100.00;67466.88;5010786;28;20068;-90
2022/02/15 09:48:45;;;;;;;33.67;24.40;;;;;;;6.26;100.00;67470.25;5016917;28;20042;-87
2022/02/15 09:51:13;;;;;;;37.85;22.80;;;;;;;6.29;100.00;67468.94;5019704;28;20075;-88
2022/02/15 09:53:40;;;;;;;34.13;22.27;;;;;;;6.37;100.00;67482.13;5032264;28;20046;-88
2022/02/15 09:56:07;;;;;;;32.05;20.70;;;;;;;;;;5046268;28;20053;-88
2022/02/15 09:58:36;;;;;;;30.00;18.05;;;;;;;6.39;100.00;67484.97;4971864;28;20600;-88
2022/02/15 10:01:12;;;;;;;34.05;18.40;;;;;;;6.42;100.00;67487.78;4980708;28;20050;-91
2022/02/15 10:03:47;;;;;;;27.75;16.60;;;;;;;6.45;100.00;67491.75;4969945;28;20050;-88
2022/02/15 10:06:15;;;;;;;28.02;15.45;;;;;;;;;;4982599;28;20182;-89
2022/02/15 10:08:42;;;;;;;25.58;15.32;;;;;;;6.43;100.00;67489.47;4963146;28;20508;-88
2022/02/15 10:11:14;;;;;;;28.75;16.58;;;;;;;6.46;100.00;67492.31;4962572;28;20053;-88
2022/02/15 10:13:45;;;;;;;24.05;13.15;;;;;;;6.44;100.00;67490.59;4970577;28;20100;-88
2022/02/15 10:16:11;;;;;;;25.45;15.57;;;;;;;6.48;100.00;67495.13;4975345;28;20043;-89
2022/02/15 10:18:37;;;;;;;28.25;14.82;;;;;;;6.50;100.00;67497.41;4985065;28;20076;-88
2022/02/15 10:21:04;;;;;;;22.35;12.88;;;;;;;;;;4990774;28;20136;-88
2022/02/15 10:23:42;;;;;;;21.05;14.20;;;;;;;6.58;100.00;67505.31;4979293;28;20102;-90
2022/02/15 10:26:08;;;;;;;22.88;15.27;;;;;;;;;;4990760;28;20103;-87
2022/02/15 10:28:34;;;;;;;23.23;11.88;;;;;;;6.58;100.00;67505.31;4989425;28;20580;-89
2022/02/15 10:31:03;;;;;;;22.08;12.18;;;;;;;6.59;100.00;67506.44;5035070;28;20037;-88
2022/02/15 10:33:34;;;;;;;;;;;;;;;6.66;100.00;67509.63;5038692;28;20041;-88
2022/02/15 10:36:01;;;;;;;22.92;12.50;;;;;;;;;;5038953;28;19921;-88
2022/02/15 10:38:33;;;;;;;23.25;15.82;;;;;;;;;;5035799;28;20049;-89
2022/02/15 10:40:59;;;;;;;29.25;14.07;;;;;;;;;;5016209;28;20050;-88
2022/02/15 10:43:45;;;;;;;26.15;15.63;;;;;;;;;;4997921;28;20034;-88
2022/02/15 10:46:16;;;;;;;23.10;14.32;;;;;;;6.85;100.00;67530.56;4990937;28;20506;-88
2022/02/15 10:48:43;;;;;;;19.88;11.63;;;;;;;6.89;100.00;67539.81;5005166;28;20417;-88
2022/02/15 10:51:12;;;;;;;19.63;12.57;;;;;;;7.08;100.00;67561.31;5011209;28;20052;-89
2022/02/15 10:53:40;;;;;;;17.08;10.63;;;;;;;7.18;100.00;67574.72;4987780;28;20082;-89
2022/02/15 10:56:05;;;;;;;17.05;9.82;;;;;;;;;;5022216;28;20778;-89
2022/02/15 10:58:33;;;;;;;13.55;7.85;;;;;;;7.15;96.84;67569.22;4987756;28;20057;-88
2022/02/15 11:01:06;;;;;;;12.45;8.32;;;;;;;;;;5004353;28;20092;-88
2022/02/15 11:03:39;;;;;;;12.05;7.05;;;;;;;;;;4976781;28;20041;-88
2022/02/15 11:06:08;;;;;;;13.82;6.80;;;;;;;;;;4954861;28;20129;-88
2022/02/15 11:08:39;;;;;;;10.40;5.40;;;;;;;;;;4947643;28;20042;-89
2022/02/15 11:11:10;;;;;;;10.35;4.20;;;;;;;7.31;91.54;67586.19;4984727;28;20294;-91
2022/02/15 11:13:38;;;;;;;8.70;3.85;;;;;;;7.27;88.80;67581.69;4958040;28;20051;-89
2022/02/15 11:16:22;;;;;;;6.40;3.35;;;;;;;;;;4972286;28;20062;-89
2022/02/15 11:18:51;;;;;;;10.10;4.47;;;;;;;7.19;88.95;67575.84;4983030;28;20039;-88
2022/02/15 11:21:26;;;;;;;7.53;4.55;;;;;;;7.22;89.88;67579.81;4971806;28;20051;-88
2022/02/15 11:24:09;;;;;;;11.35;5.45;;;;;;;7.24;90.67;67579.41;4982630;28;20051;-88
2022/02/15 11:26:43;;;;;;;10.25;4.93;;;;;;;7.27;92.02;67584.88;4983860;28;20573;-88
2022/02/15 11:29:22;;;;;;;17.50;6.72;;;;;;;;;;4976748;28;20108;-89
2022/02/15 11:31:50;;;;;;;13.25;6.05;;;;;;;7.29;91.63;67578.66;5011484;28;20065;-88
2022/02/15 11:34:16;;;;;;;11.85;6.00;;;;;;;7.38;93.73;67596.78;5020842;28;20044;-87
2022/02/15 11:36:45;;;;;;;11.45;5.57;;;;;;;;;;5027264;28;20037;-87
2022/02/15 11:39:17;;;;;;;12.80;4.97;;;;;;;;;;5006272;28;20655;-87
2022/02/15 11:41:45;;;;;;;7.55;4.30;;;;;;;;;;5033091;28;20053;-86
2022/02/15 11:44:10;;;;;;;8.05;4.65;;;;;;;;;;5021740;28;20390;-89
2022/02/15 11:46:46;;;;;;;13.50;5.15;;;;;;;7.64;90.35;67623.56;5006976;28;20053;-87
2022/02/15 11:49:15;;;;;;;11.48;5.03;;;;;;;;;;5023718;28;20044;-89
2022/02/15 11:51:49;;;;;;;11.75;4.70;;;;;;;;;;5009114;28;20128;-87
2022/02/15 11:54:26;;;;;;;8.93;4.70;;;;;;;;;;5032645;28;20095;-86
2022/02/15 11:56:52;;;;;;;7.25;3.58;;;;;;;;;;5029478;28;20473;-90
2022/02/15 11:59:24;;;;;;;7.60;3.53;;;;;;;7.51;85.26;67614.16;5031954;28;20037;-86
2022/02/15 12:01:56;;;;;;;6.47;3.65;;;;;;;;;;5032938;28;20402;-86
2022/02/15 12:04:22;;;;;;;10.43;3.58;;;;;;;;;;5033449;28;20052;-87
2022/02/15 12:06:48;;;;;;;10.00;4.13;;;;;;;7.68;86.07;67627.50;5030471;28;20042;-86